sensor_id;sensor_type;location;lat;lon;timestamp;pressure;altitude;pressure_sealevel;temperature;humidity
26443;BME280;5563;52.296;6.806;2023-05-16T00:01:51;101610.97;;;9.48;79.00
26443;BME280;5563;52.296;6.806;2023-05-16T00:04:25;101620.19;;;9.57;78.56
26443;BME280;5563;52.296;6.806;2023-05-16T00:06:59;101615.44;;;9.48;78.60
26443;BME280;5563;52.296;6.806;2023-05-16T00:09:33;101631.03;;;9.54;78.74
26443;BME280;5563;52.296;6.806;2023-05-16T00:12:01;101643.09;;;9.59;79.24
26443;BME280;5563;52.296;6.806;2023-05-16T00:14:36;101611.56;;;9.39;78.94
26443;BME280;5563;52.296;6.806;2023-05-16T00:17:12;101617.44;;;9.44;79.05
26443;BME280;5563;52.296;6.806;2023-05-16T00:19:46;101621.44;;;9.37;79.10
26443;BME280;5563;52.296;6.806;2023-05-16T00:22:18;101644.25;;;9.55;79.21
26443;BME280;5563;52.296;6.806;2023-05-16T00:24:52;101610.25;;;9.32;79.12
26443;BME280;5563;52.296;6.806;2023-05-16T00:27:35;101616.34;;;9.34;78.90
26443;BME280;5563;52.296;6.806;2023-05-16T00:30:03;101620.13;;;9.30;79.05
26443;BME280;5563;52.296;6.806;2023-05-16T00:32:37;101621.09;;;9.29;79.45
26443;BME280;5563;52.296;6.806;2023-05-16T00:35:05;101625.44;;;9.30;79.77
26443;BME280;5563;52.296;6.806;2023-05-16T00:37:43;101623.66;;;9.17;79.18
26443;BME280;5563;52.296;6.806;2023-05-16T00:40:19;101634.97;;;9.20;79.52
26443;BME280;5563;52.296;6.806;2023-05-16T00:42:54;101625.38;;;9.04;79.17
26443;BME280;5563;52.296;6.806;2023-05-16T00:45:22;101634.38;;;9.01;79.30
26443;BME280;5563;52.296;6.806;2023-05-16T00:47:56;101646.28;;;8.96;79.70
26443;BME280;5563;52.296;6.806;2023-05-16T00:50:26;101639.63;;;8.89;79.69
26443;BME280;5563;52.296;6.806;2023-05-16T00:53:09;101635.22;;;8.73;80.16
26443;BME280;5563;52.296;6.806;2023-05-16T00:55:46;101645.97;;;8.72;80.35
26443;BME280;5563;52.296;6.806;2023-05-16T00:58:20;101674.16;;;8.74;80.45
26443;BME280;5563;52.296;6.806;2023-05-16T01:00:49;101668.44;;;8.66;80.59
26443;BME280;5563;52.296;6.806;2023-05-16T01:03:23;101652.56;;;8.51;80.79
26443;BME280;5563;52.296;6.806;2023-05-16T01:05:50;101624.75;;;8.27;80.89
26443;BME280;5563;52.296;6.806;2023-05-16T01:08:19;101636.34;;;8.26;81.20
26443;BME280;5563;52.296;6.806;2023-05-16T01:11:07;101654.09;;;8.25;80.91
26443;BME280;5563;52.296;6.806;2023-05-16T01:16:46;101661.53;;;8.19;81.31
26443;BME280;5563;52.296;6.806;2023-05-16T01:22:15;101653.94;;;7.97;82.45
26443;BME280;5563;52.296;6.806;2023-05-16T01:25:10;101661.91;;;7.97;82.62
26443;BME280;5563;52.296;6.806;2023-05-16T01:27:56;101628.88;;;7.72;82.14
26443;BME280;5563;52.296;6.806;2023-05-16T01:30:38;101629.22;;;7.65;82.66
26443;BME280;5563;52.296;6.806;2023-05-16T01:33:07;101630.13;;;7.64;82.53
26443;BME280;5563;52.296;6.806;2023-05-16T01:35:54;101653.50;;;7.74;82.59
26443;BME280;5563;52.296;6.806;2023-05-16T01:38:31;101649.75;;;7.62;82.39
26443;BME280;5563;52.296;6.806;2023-05-16T01:43:44;101653.59;;;7.56;83.01
26443;BME280;5563;52.296;6.806;2023-05-16T01:46:23;101675.25;;;7.64;82.92
26443;BME280;5563;52.296;6.806;2023-05-16T01:49:30;101671.31;;;7.56;82.54
26443;BME280;5563;52.296;6.806;2023-05-16T01:52:11;101663.13;;;7.45;82.92
26443;BME280;5563;52.296;6.806;2023-05-16T01:54:49;101681.00;;;7.57;83.52
26443;BME280;5563;52.296;6.806;2023-05-16T01:57:27;101686.47;;;7.54;83.42
26443;BME280;5563;52.296;6.806;2023-05-16T01:59:57;101681.50;;;7.48;83.21
26443;BME280;5563;52.296;6.806;2023-05-16T02:02:34;101649.22;;;7.24;83.65
26443;BME280;5563;52.296;6.806;2023-05-16T02:05:07;101656.47;;;7.21;83.39
26443;BME280;5563;52.296;6.806;2023-05-16T02:07:42;101671.91;;;7.30;83.64
26443;BME280;5563;52.296;6.806;2023-05-16T02:10:17;101673.78;;;7.28;83.91
26443;BME280;5563;52.296;6.806;2023-05-16T02:12:45;101691.16;;;7.33;83.57
26443;BME280;5563;52.296;6.806;2023-05-16T02:15:21;101666.66;;;7.13;83.75
26443;BME280;5563;52.296;6.806;2023-05-16T02:17:51;101672.88;;;7.12;83.51
26443;BME280;5563;52.296;6.806;2023-05-16T02:20:25;101664.50;;;7.04;83.55
26443;BME280;5563;52.296;6.806;2023-05-16T02:22:52;101656.84;;;6.98;83.55
26443;BME280;5563;52.296;6.806;2023-05-16T02:25:32;101694.66;;;7.18;84.11
26443;BME280;5563;52.296;6.806;2023-05-16T02:28:12;101653.50;;;6.94;84.13
26443;BME280;5563;52.296;6.806;2023-05-16T02:30:55;101664.28;;;6.91;84.42
26443;BME280;5563;52.296;6.806;2023-05-16T02:33:24;101668.88;;;6.88;84.31
26443;BME280;5563;52.296;6.806;2023-05-16T02:35:59;101682.75;;;6.93;83.68
26443;BME280;5563;52.296;6.806;2023-05-16T02:38:26;101682.13;;;6.88;83.96
26443;BME280;5563;52.296;6.806;2023-05-16T02:40:59;101670.44;;;6.75;83.77
26443;BME280;5563;52.296;6.806;2023-05-16T02:43:27;101719.06;;;6.91;84.08
26443;BME280;5563;52.296;6.806;2023-05-16T02:46:03;101706.38;;;6.80;84.37
26443;BME280;5563;52.296;6.806;2023-05-16T02:48:36;101710.81;;;6.80;84.17
26443;BME280;5563;52.296;6.806;2023-05-16T02:51:13;101688.84;;;6.61;84.31
26443;BME280;5563;52.296;6.806;2023-05-16T02:53:43;101702.88;;;6.63;84.22
26443;BME280;5563;52.296;6.806;2023-05-16T02:56:20;101696.09;;;6.57;83.88
26443;BME280;5563;52.296;6.806;2023-05-16T02:58:54;101708.25;;;6.61;84.09
26443;BME280;5563;52.296;6.806;2023-05-16T03:01:22;101734.22;;;6.72;84.09
26443;BME280;5563;52.296;6.806;2023-05-16T03:03:59;101694.06;;;6.45;84.12
26443;BME280;5563;52.296;6.806;2023-05-16T03:06:34;101739.91;;;6.64;84.21
26443;BME280;5563;52.296;6.806;2023-05-16T03:09:10;101708.22;;;6.44;84.57
26443;BME280;5563;52.296;6.806;2023-05-16T03:11:38;101695.47;;;6.35;84.42
26443;BME280;5563;52.296;6.806;2023-05-16T03:14:14;101710.19;;;6.40;84.59
26443;BME280;5563;52.296;6.806;2023-05-16T03:16:41;101739.56;;;6.53;84.85
26443;BME280;5563;52.296;6.806;2023-05-16T03:19:16;101735.28;;;6.50;84.42
26443;BME280;5563;52.296;6.806;2023-05-16T03:21:50;101714.03;;;6.35;84.68
26443;BME280;5563;52.296;6.806;2023-05-16T03:24:24;101736.47;;;6.45;84.61
26443;BME280;5563;52.296;6.806;2023-05-16T03:27:06;101720.50;;;6.28;84.37
26443;BME280;5563;52.296;6.806;2023-05-16T03:29:40;101712.19;;;6.18;84.96
26443;BME280;5563;52.296;6.806;2023-05-16T03:32:15;101721.75;;;6.21;84.88
26443;BME280;5563;52.296;6.806;2023-05-16T03:34:45;101748.50;;;6.33;85.02
26443;BME280;5563;52.296;6.806;2023-05-16T03:37:19;101714.34;;;6.10;85.33
26443;BME280;5563;52.296;6.806;2023-05-16T03:39:55;101760.81;;;6.34;85.58
26443;BME280;5563;52.296;6.806;2023-05-16T03:42:23;101760.03;;;6.32;85.23
26443;BME280;5563;52.296;6.806;2023-05-16T03:44:50;101726.56;;;6.13;85.69
26443;BME280;5563;52.296;6.806;2023-05-16T03:47:25;101742.03;;;6.22;85.29
26443;BME280;5563;52.296;6.806;2023-05-16T03:49:53;101763.63;;;6.31;85.77
26443;BME280;5563;52.296;6.806;2023-05-16T03:52:26;101763.69;;;6.30;85.62
26443;BME280;5563;52.296;6.806;2023-05-16T03:54:58;101728.59;;;6.08;85.34
26443;BME280;5563;52.296;6.806;2023-05-16T03:57:34;101758.06;;;6.19;85.38
26443;BME280;5563;52.296;6.806;2023-05-16T04:00:03;101734.75;;;6.08;85.54
26443;BME280;5563;52.296;6.806;2023-05-16T04:02:40;101764.69;;;6.27;85.19
26443;BME280;5563;52.296;6.806;2023-05-16T04:05:27;101768.97;;;6.30;85.67
26443;BME280;5563;52.296;6.806;2023-05-16T04:08:02;101757.13;;;6.20;85.52
26443;BME280;5563;52.296;6.806;2023-05-16T04:10:35;101748.19;;;6.22;85.62
26443;BME280;5563;52.296;6.806;2023-05-16T04:13:03;101771.41;;;6.34;85.38
26443;BME280;5563;52.296;6.806;2023-05-16T04:15:37;101782.72;;;6.38;85.94
26443;BME280;5563;52.296;6.806;2023-05-16T04:18:11;101764.53;;;6.30;85.43
26443;BME280;5563;52.296;6.806;2023-05-16T04:20:45;101744.03;;;6.17;85.56
26443;BME280;5563;52.296;6.806;2023-05-16T04:23:13;101767.13;;;6.32;85.99
26443;BME280;5563;52.296;6.806;2023-05-16T04:25:48;101781.56;;;6.43;85.66
26443;BME280;5563;52.296;6.806;2023-05-16T04:28:34;101755.81;;;6.28;85.66
26443;BME280;5563;52.296;6.806;2023-05-16T04:31:08;101782.28;;;6.47;85.74
26443;BME280;5563;52.296;6.806;2023-05-16T04:33:35;101753.25;;;6.27;85.51
26443;BME280;5563;52.296;6.806;2023-05-16T04:36:10;101797.16;;;6.49;85.43
26443;BME280;5563;52.296;6.806;2023-05-16T04:38:37;101792.16;;;6.43;85.20
26443;BME280;5563;52.296;6.806;2023-05-16T04:41:11;101775.84;;;6.34;85.66
26443;BME280;5563;52.296;6.806;2023-05-16T04:43:39;101796.22;;;6.50;85.31
26443;BME280;5563;52.296;6.806;2023-05-16T04:46:13;101790.13;;;6.48;85.87
26443;BME280;5563;52.296;6.806;2023-05-16T04:48:41;101811.34;;;6.66;85.72
26443;BME280;5563;52.296;6.806;2023-05-16T04:51:14;101786.47;;;6.51;85.53
26443;BME280;5563;52.296;6.806;2023-05-16T04:53:44;101814.41;;;6.75;85.51
26443;BME280;5563;52.296;6.806;2023-05-16T04:56:18;101798.03;;;6.67;85.58
26443;BME280;5563;52.296;6.806;2023-05-16T04:58:52;101826.34;;;6.84;85.01
26443;BME280;5563;52.296;6.806;2023-05-16T05:01:27;101801.16;;;6.75;84.95
26443;BME280;5563;52.296;6.806;2023-05-16T05:04:01;101786.59;;;6.67;84.86
26443;BME280;5563;52.296;6.806;2023-05-16T05:06:28;101801.09;;;6.77;84.79
26443;BME280;5563;52.296;6.806;2023-05-16T05:09:02;101793.22;;;6.75;84.48
26443;BME280;5563;52.296;6.806;2023-05-16T05:11:33;101809.28;;;6.89;84.86
26443;BME280;5563;52.296;6.806;2023-05-16T05:14:08;101813.25;;;6.98;84.54
26443;BME280;5563;52.296;6.806;2023-05-16T05:16:40;101801.88;;;6.96;84.42
26443;BME280;5563;52.296;6.806;2023-05-16T05:19:15;101835.19;;;7.18;84.14
26443;BME280;5563;52.296;6.806;2023-05-16T05:21:42;101828.25;;;7.16;83.92
26443;BME280;5563;52.296;6.806;2023-05-16T05:24:16;101806.50;;;7.09;84.02
26443;BME280;5563;52.296;6.806;2023-05-16T05:26:43;101812.03;;;7.22;83.79
26443;BME280;5563;52.296;6.806;2023-05-16T05:29:30;101825.50;;;7.34;83.21
26443;BME280;5563;52.296;6.806;2023-05-16T05:31:57;101808.19;;;7.27;82.60
26443;BME280;5563;52.296;6.806;2023-05-16T05:34:32;101841.41;;;7.51;82.64
26443;BME280;5563;52.296;6.806;2023-05-16T05:37:06;101825.78;;;7.45;82.13
26443;BME280;5563;52.296;6.806;2023-05-16T05:39:40;101818.69;;;7.46;82.15
26443;BME280;5563;52.296;6.806;2023-05-16T05:42:07;101815.75;;;7.52;81.99
26443;BME280;5563;52.296;6.806;2023-05-16T05:44:45;101824.75;;;7.65;81.83
26443;BME280;5563;52.296;6.806;2023-05-16T05:47:19;101827.97;;;7.72;82.06
26443;BME280;5563;52.296;6.806;2023-05-16T05:49:53;101824.09;;;7.77;81.54
26443;BME280;5563;52.296;6.806;2023-05-16T05:52:29;101847.78;;;7.97;81.48
26443;BME280;5563;52.296;6.806;2023-05-16T05:54:57;101823.59;;;7.86;80.87
26443;BME280;5563;52.296;6.806;2023-05-16T05:57:32;101820.81;;;7.89;80.36
26443;BME280;5563;52.296;6.806;2023-05-16T06:00:02;101853.78;;;8.16;80.26
26443;BME280;5563;52.296;6.806;2023-05-16T06:02:38;101826.81;;;8.08;79.70
26443;BME280;5563;52.296;6.806;2023-05-16T06:05:06;101838.63;;;8.18;79.78
26443;BME280;5563;52.296;6.806;2023-05-16T06:07:41;101841.78;;;8.26;79.72
26443;BME280;5563;52.296;6.806;2023-05-16T06:10:08;101831.75;;;8.31;79.31
26443;BME280;5563;52.296;6.806;2023-05-16T06:12:43;101822.81;;;8.32;79.47
26443;BME280;5563;52.296;6.806;2023-05-16T06:15:14;101819.66;;;8.41;78.91
26443;BME280;5563;52.296;6.806;2023-05-16T06:17:47;101838.31;;;8.55;79.08
26443;BME280;5563;52.296;6.806;2023-05-16T06:20:24;101830.22;;;8.58;77.88
26443;BME280;5563;52.296;6.806;2023-05-16T06:22:58;101829.84;;;8.64;77.10
26443;BME280;5563;52.296;6.806;2023-05-16T06:25:31;101837.19;;;8.75;77.50
26443;BME280;5563;52.296;6.806;2023-05-16T06:28:05;101831.53;;;8.81;77.82
26443;BME280;5563;52.296;6.806;2023-05-16T06:30:39;101863.38;;;9.12;76.84
26443;BME280;5563;52.296;6.806;2023-05-16T06:33:06;101847.09;;;9.03;75.23
26443;BME280;5563;52.296;6.806;2023-05-16T06:35:43;101855.13;;;9.17;75.78
26443;BME280;5563;52.296;6.806;2023-05-16T06:38:14;101881.31;;;9.38;75.63
26443;BME280;5563;52.296;6.806;2023-05-16T06:40:48;101852.31;;;9.34;75.46
26443;BME280;5563;52.296;6.806;2023-05-16T06:43:18;101865.41;;;9.52;76.10
26443;BME280;5563;52.296;6.806;2023-05-16T06:45:53;101883.28;;;9.64;74.17
26443;BME280;5563;52.296;6.806;2023-05-16T06:48:23;101864.81;;;9.61;73.48
26443;BME280;5563;52.296;6.806;2023-05-16T06:50:58;101851.91;;;9.55;73.02
26443;BME280;5563;52.296;6.806;2023-05-16T06:53:28;101863.50;;;9.68;71.87
26443;BME280;5563;52.296;6.806;2023-05-16T06:55:55;101858.78;;;9.73;72.26
26443;BME280;5563;52.296;6.806;2023-05-16T06:58:32;101880.00;;;9.89;70.80
26443;BME280;5563;52.296;6.806;2023-05-16T07:01:08;101899.00;;;9.97;71.73
26443;BME280;5563;52.296;6.806;2023-05-16T07:03:36;101871.78;;;9.92;70.83
26443;BME280;5563;52.296;6.806;2023-05-16T07:06:12;101873.91;;;10.01;70.35
26443;BME280;5563;52.296;6.806;2023-05-16T07:08:39;101894.38;;;10.15;71.11
26443;BME280;5563;52.296;6.806;2023-05-16T07:11:13;101861.91;;;10.08;71.00
26443;BME280;5563;52.296;6.806;2023-05-16T07:13:47;101871.34;;;10.28;69.62
26443;BME280;5563;52.296;6.806;2023-05-16T07:16:17;101875.78;;;10.41;68.47
26443;BME280;5563;52.296;6.806;2023-05-16T07:18:51;101895.69;;;10.50;67.41
26443;BME280;5563;52.296;6.806;2023-05-16T07:21:18;101872.75;;;10.47;69.15
26443;BME280;5563;52.296;6.806;2023-05-16T07:23:53;101894.88;;;10.76;69.53
26443;BME280;5563;52.296;6.806;2023-05-16T07:26:27;101897.38;;;10.92;69.40
26443;BME280;5563;52.296;6.806;2023-05-16T07:29:01;101883.56;;;10.99;66.89
26443;BME280;5563;52.296;6.806;2023-05-16T07:31:37;101873.63;;;11.01;65.86
26443;BME280;5563;52.296;6.806;2023-05-16T07:34:11;101877.13;;;11.02;65.56
26443;BME280;5563;52.296;6.806;2023-05-16T07:36:38;101870.66;;;11.06;67.74
26443;BME280;5563;52.296;6.806;2023-05-16T07:39:15;101898.94;;;11.35;65.74
26443;BME280;5563;52.296;6.806;2023-05-16T07:41:51;101882.66;;;11.25;64.37
26443;BME280;5563;52.296;6.806;2023-05-16T07:44:25;101885.59;;;11.35;65.16
26443;BME280;5563;52.296;6.806;2023-05-16T07:46:52;101900.22;;;11.42;63.40
26443;BME280;5563;52.296;6.806;2023-05-16T07:49:20;101903.75;;;11.42;64.36
26443;BME280;5563;52.296;6.806;2023-05-16T07:51:57;101879.38;;;11.34;63.32
26443;BME280;5563;52.296;6.806;2023-05-16T07:54:28;101874.06;;;11.47;64.39
26443;BME280;5563;52.296;6.806;2023-05-16T07:57:04;101885.94;;;11.55;63.31
26443;BME280;5563;52.296;6.806;2023-05-16T07:59:32;101900.41;;;11.78;63.18
26443;BME280;5563;52.296;6.806;2023-05-16T08:02:10;101909.00;;;11.83;62.37
26443;BME280;5563;52.296;6.806;2023-05-16T08:04:39;101911.19;;;11.76;61.78
26443;BME280;5563;52.296;6.806;2023-05-16T08:07:14;101893.19;;;11.53;61.80
26443;BME280;5563;52.296;6.806;2023-05-16T08:09:41;101913.28;;;11.59;62.84
26443;BME280;5563;52.296;6.806;2023-05-16T08:12:16;101910.59;;;11.46;62.35
26443;BME280;5563;52.296;6.806;2023-05-16T08:14:44;101890.72;;;11.38;62.53
26443;BME280;5563;52.296;6.806;2023-05-16T08:17:18;101885.38;;;11.38;62.51
26443;BME280;5563;52.296;6.806;2023-05-16T08:19:55;101891.16;;;11.57;62.67
26443;BME280;5563;52.296;6.806;2023-05-16T08:22:29;101877.50;;;11.61;61.03
26443;BME280;5563;52.296;6.806;2023-05-16T08:25:05;101898.84;;;11.88;61.80
26443;BME280;5563;52.296;6.806;2023-05-16T08:27:43;101906.09;;;12.11;61.23
26443;BME280;5563;52.296;6.806;2023-05-16T08:30:18;101880.13;;;12.13;62.10
26443;BME280;5563;52.296;6.806;2023-05-16T08:32:58;101893.25;;;12.29;60.00
26443;BME280;5563;52.296;6.806;2023-05-16T08:35:35;101869.50;;;12.12;59.82
26443;BME280;5563;52.296;6.806;2023-05-16T08:38:09;101912.84;;;12.17;60.72
26443;BME280;5563;52.296;6.806;2023-05-16T08:40:46;101909.41;;;12.02;60.85
26443;BME280;5563;52.296;6.806;2023-05-16T08:43:14;101869.84;;;11.69;62.15
26443;BME280;5563;52.296;6.806;2023-05-16T08:45:51;101888.56;;;11.82;62.04
26443;BME280;5563;52.296;6.806;2023-05-16T08:48:22;101905.00;;;12.01;61.46
26443;BME280;5563;52.296;6.806;2023-05-16T08:50:56;101874.22;;;12.08;61.58
26443;BME280;5563;52.296;6.806;2023-05-16T08:53:44;101882.81;;;12.49;59.96
26443;BME280;5563;52.296;6.806;2023-05-16T08:56:20;101898.63;;;12.88;57.79
26443;BME280;5563;52.296;6.806;2023-05-16T08:58:50;101866.59;;;12.99;53.67
26443;BME280;5563;52.296;6.806;2023-05-16T09:01:27;101877.41;;;13.22;54.99
26443;BME280;5563;52.296;6.806;2023-05-16T09:03:55;101862.28;;;13.44;56.14
26443;BME280;5563;52.296;6.806;2023-05-16T09:06:32;101899.41;;;13.94;56.80
26443;BME280;5563;52.296;6.806;2023-05-16T09:09:00;101861.88;;;13.83;52.17
26443;BME280;5563;52.296;6.806;2023-05-16T09:11:35;101860.44;;;13.90;53.11
26443;BME280;5563;52.296;6.806;2023-05-16T09:14:02;101868.59;;;14.11;52.06
26443;BME280;5563;52.296;6.806;2023-05-16T09:16:38;101855.94;;;14.35;51.11
26443;BME280;5563;52.296;6.806;2023-05-16T09:19:12;101872.22;;;14.76;50.19
26443;BME280;5563;52.296;6.806;2023-05-16T09:21:40;101852.03;;;14.93;47.99
26443;BME280;5563;52.296;6.806;2023-05-16T09:24:14;101859.63;;;14.88;48.60
26443;BME280;5563;52.296;6.806;2023-05-16T09:26:43;101866.25;;;14.62;50.10
26443;BME280;5563;52.296;6.806;2023-05-16T09:29:17;101884.97;;;14.30;52.21
26443;BME280;5563;52.296;6.806;2023-05-16T09:31:51;101877.47;;;13.89;52.98
26443;BME280;5563;52.296;6.806;2023-05-16T09:34:25;101866.31;;;13.50;53.75
26443;BME280;5563;52.296;6.806;2023-05-16T09:36:53;101874.97;;;13.53;52.35
26443;BME280;5563;52.296;6.806;2023-05-16T09:39:27;101903.44;;;14.00;53.49
26443;BME280;5563;52.296;6.806;2023-05-16T09:41:58;101880.66;;;14.05;52.39
26443;BME280;5563;52.296;6.806;2023-05-16T09:44:32;101875.91;;;14.20;52.79
26443;BME280;5563;52.296;6.806;2023-05-16T09:46:59;101869.13;;;14.27;53.29
26443;BME280;5563;52.296;6.806;2023-05-16T09:49:36;101883.38;;;14.50;54.23
26443;BME280;5563;52.296;6.806;2023-05-16T09:52:08;101875.03;;;14.75;52.94
26443;BME280;5563;52.296;6.806;2023-05-16T09:54:45;101871.16;;;14.57;51.67
26443;BME280;5563;52.296;6.806;2023-05-16T09:57:21;101877.38;;;14.57;51.68
26443;BME280;5563;52.296;6.806;2023-05-16T09:59:49;101871.13;;;14.68;49.54
26443;BME280;5563;52.296;6.806;2023-05-16T10:02:24;101888.91;;;14.91;49.70
26443;BME280;5563;52.296;6.806;2023-05-16T10:04:54;101873.81;;;14.79;51.87
26443;BME280;5563;52.296;6.806;2023-05-16T10:07:30;101877.25;;;14.48;48.92
26443;BME280;5563;52.296;6.806;2023-05-16T10:10:09;101890.41;;;13.95;51.49
26443;BME280;5563;52.296;6.806;2023-05-16T10:12:46;101901.78;;;13.53;53.25
26443;BME280;5563;52.296;6.806;2023-05-16T10:15:20;101891.59;;;13.11;55.20
26443;BME280;5563;52.296;6.806;2023-05-16T10:17:55;101898.31;;;12.93;54.97
26443;BME280;5563;52.296;6.806;2023-05-16T10:20:26;101893.97;;;12.79;54.62
26443;BME280;5563;52.296;6.806;2023-05-16T10:23:01;101888.16;;;12.85;56.00
26443;BME280;5563;52.296;6.806;2023-05-16T10:25:33;101884.28;;;13.37;55.32
26443;BME280;5563;52.296;6.806;2023-05-16T10:28:15;101899.41;;;13.94;53.41
26443;BME280;5563;52.296;6.806;2023-05-16T10:30:50;101888.09;;;14.13;50.03
26443;BME280;5563;52.296;6.806;2023-05-16T10:33:18;101884.56;;;14.46;52.15
26443;BME280;5563;52.296;6.806;2023-05-16T10:35:52;101889.78;;;14.80;50.69
26443;BME280;5563;52.296;6.806;2023-05-16T10:38:27;101903.06;;;15.25;47.84
26443;BME280;5563;52.296;6.806;2023-05-16T10:41:01;101902.22;;;15.24;47.76
26443;BME280;5563;52.296;6.806;2023-05-16T10:43:31;101883.72;;;15.42;47.16
26443;BME280;5563;52.296;6.806;2023-05-16T10:46:13;101874.69;;;15.63;45.95
26443;BME280;5563;52.296;6.806;2023-05-16T10:48:41;101884.81;;;15.50;43.10
26443;BME280;5563;52.296;6.806;2023-05-16T10:51:37;101902.16;;;15.67;45.83
26443;BME280;5563;52.296;6.806;2023-05-16T10:54:07;101872.34;;;15.49;44.11
26443;BME280;5563;52.296;6.806;2023-05-16T10:56:43;101873.97;;;15.61;42.94
26443;BME280;5563;52.296;6.806;2023-05-16T10:59:24;101889.66;;;15.56;44.19
26443;BME280;5563;52.296;6.806;2023-05-16T11:01:59;101886.84;;;15.15;43.58
26443;BME280;5563;52.296;6.806;2023-05-16T11:04:44;101878.75;;;14.94;45.25
26443;BME280;5563;52.296;6.806;2023-05-16T11:07:23;101880.72;;;15.24;43.50
26443;BME280;5563;52.296;6.806;2023-05-16T11:10:05;101860.28;;;15.33;43.16
26443;BME280;5563;52.296;6.806;2023-05-16T11:12:45;101883.47;;;15.65;42.95
26443;BME280;5563;52.296;6.806;2023-05-16T11:15:19;101869.63;;;15.90;45.30
26443;BME280;5563;52.296;6.806;2023-05-16T11:20:36;101883.03;;;15.60;41.69
26443;BME280;5563;52.296;6.806;2023-05-16T11:23:17;101889.78;;;15.55;44.87
26443;BME280;5563;52.296;6.806;2023-05-16T11:25:51;101871.34;;;15.18;44.29
26443;BME280;5563;52.296;6.806;2023-05-16T11:28:26;101869.84;;;14.94;45.00
26443;BME280;5563;52.296;6.806;2023-05-16T11:31:01;101869.78;;;14.73;45.74
26443;BME280;5563;52.296;6.806;2023-05-16T11:33:38;101883.56;;;14.69;45.45
26443;BME280;5563;52.296;6.806;2023-05-16T11:36:06;101878.84;;;14.50;45.01
26443;BME280;5563;52.296;6.806;2023-05-16T11:38:44;101875.22;;;14.29;47.02
26443;BME280;5563;52.296;6.806;2023-05-16T11:41:21;101888.38;;;14.32;47.66
26443;BME280;5563;52.296;6.806;2023-05-16T11:43:57;101891.31;;;14.40;48.40
26443;BME280;5563;52.296;6.806;2023-05-16T11:46:24;101885.16;;;14.71;48.11
26443;BME280;5563;52.296;6.806;2023-05-16T11:48:58;101874.13;;;15.28;47.12
26443;BME280;5563;52.296;6.806;2023-05-16T11:51:25;101876.19;;;15.56;46.47
26443;BME280;5563;52.296;6.806;2023-05-16T11:53:59;101893.38;;;15.65;44.58
26443;BME280;5563;52.296;6.806;2023-05-16T11:56:34;101894.38;;;15.43;44.98
26443;BME280;5563;52.296;6.806;2023-05-16T11:59:07;101891.09;;;15.29;46.82
26443;BME280;5563;52.296;6.806;2023-05-16T12:01:37;101879.81;;;15.46;47.65
26443;BME280;5563;52.296;6.806;2023-05-16T12:04:16;101891.50;;;15.76;43.95
26443;BME280;5563;52.296;6.806;2023-05-16T12:07:00;101882.16;;;16.01;44.41
26443;BME280;5563;52.296;6.806;2023-05-16T12:09:34;101894.94;;;16.08;42.97
26443;BME280;5563;52.296;6.806;2023-05-16T12:12:04;101891.88;;;15.92;43.88
26443;BME280;5563;52.296;6.806;2023-05-16T12:14:38;101910.50;;;16.05;42.25
26443;BME280;5563;52.296;6.806;2023-05-16T12:17:05;101891.34;;;15.78;43.52
26443;BME280;5563;52.296;6.806;2023-05-16T12:19:39;101888.97;;;16.05;45.48
26443;BME280;5563;52.296;6.806;2023-05-16T12:22:17;101901.28;;;16.58;43.83
26443;BME280;5563;52.296;6.806;2023-05-16T12:24:51;101909.56;;;16.85;42.75
26443;BME280;5563;52.296;6.806;2023-05-16T12:27:31;101884.47;;;16.45;42.25
26443;BME280;5563;52.296;6.806;2023-05-16T12:30:12;101905.56;;;16.10;42.01
26443;BME280;5563;52.296;6.806;2023-05-16T12:32:51;101908.78;;;16.04;46.27
26443;BME280;5563;52.296;6.806;2023-05-16T12:35:19;101899.25;;;16.20;45.74
26443;BME280;5563;52.296;6.806;2023-05-16T12:37:53;101882.97;;;16.52;45.41
26443;BME280;5563;52.296;6.806;2023-05-16T12:40:20;101898.97;;;16.54;41.65
26443;BME280;5563;52.296;6.806;2023-05-16T12:42:54;101908.88;;;16.53;41.42
26443;BME280;5563;52.296;6.806;2023-05-16T12:45:28;101897.34;;;16.42;40.25
26443;BME280;5563;52.296;6.806;2023-05-16T12:48:11;101916.31;;;16.10;42.14
26443;BME280;5563;52.296;6.806;2023-05-16T12:50:45;101924.00;;;15.94;43.08
26443;BME280;5563;52.296;6.806;2023-05-16T12:53:13;101919.03;;;15.69;43.49
26443;BME280;5563;52.296;6.806;2023-05-16T12:55:47;101915.06;;;15.21;44.42
26443;BME280;5563;52.296;6.806;2023-05-16T12:58:21;101906.91;;;14.68;46.85
26443;BME280;5563;52.296;6.806;2023-05-16T13:00:55;101939.63;;;14.40;48.36
26443;BME280;5563;52.296;6.806;2023-05-16T13:03:38;101934.75;;;13.99;50.20
26443;BME280;5563;52.296;6.806;2023-05-16T13:06:05;101944.38;;;13.91;50.58
26443;BME280;5563;52.296;6.806;2023-05-16T13:08:41;101942.31;;;13.83;51.25
26443;BME280;5563;52.296;6.806;2023-05-16T13:11:08;101946.59;;;13.97;51.24
26443;BME280;5563;52.296;6.806;2023-05-16T13:13:45;101931.97;;;14.01;50.09
26443;BME280;5563;52.296;6.806;2023-05-16T13:16:12;101935.41;;;14.25;51.88
26443;BME280;5563;52.296;6.806;2023-05-16T13:18:46;101937.00;;;14.83;50.18
26443;BME280;5563;52.296;6.806;2023-05-16T13:21:20;101945.16;;;15.46;49.49
26443;BME280;5563;52.296;6.806;2023-05-16T13:23:47;101928.50;;;15.84;46.66
26443;BME280;5563;52.296;6.806;2023-05-16T13:26:27;101936.69;;;16.33;47.12
26443;BME280;5563;52.296;6.806;2023-05-16T13:29:11;101937.19;;;16.78;44.50
26443;BME280;5563;52.296;6.806;2023-05-16T13:31:45;101958.25;;;17.12;43.90
26443;BME280;5563;52.296;6.806;2023-05-16T13:34:18;101938.53;;;17.02;43.56
26443;BME280;5563;52.296;6.806;2023-05-16T13:36:51;101945.97;;;16.70;43.64
26443;BME280;5563;52.296;6.806;2023-05-16T13:39:25;101926.53;;;16.37;44.64
26443;BME280;5563;52.296;6.806;2023-05-16T13:41:52;101944.81;;;16.43;44.43
26443;BME280;5563;52.296;6.806;2023-05-16T13:44:26;101945.56;;;16.24;43.67
26443;BME280;5563;52.296;6.806;2023-05-16T13:46:53;101936.75;;;15.92;44.16
26443;BME280;5563;52.296;6.806;2023-05-16T13:49:26;101946.00;;;15.99;44.95
26443;BME280;5563;52.296;6.806;2023-05-16T13:52:00;101946.50;;;15.93;44.30